createdAt,value
2019-02-23T00:00:13.168Z,14.23
2019-02-23T00:02:41.629Z,15.20
2019-02-23T00:05:10.157Z,14.00
2019-02-23T00:07:38.729Z,13.40
2019-02-23T00:10:08.163Z,13.67
2019-02-23T00:12:36.611Z,15.43
2019-02-23T00:15:06.897Z,13.50
2019-02-23T00:17:35.352Z,13.93
2019-02-23T00:20:05.621Z,17.37
2019-02-23T00:22:34.176Z,15.40
2019-02-23T00:25:02.783Z,15.20
2019-02-23T00:27:31.250Z,14.03
2019-02-23T00:29:59.728Z,14.93
2019-02-23T00:32:28.591Z,15.80
2019-02-23T00:34:57.184Z,12.40
2019-02-23T00:37:26.529Z,15.03
2019-02-23T00:39:55.059Z,15.13
2019-02-23T00:42:23.516Z,15.87
2019-02-23T00:44:52.103Z,16.63
2019-02-23T00:47:20.710Z,16.57
2019-02-23T00:49:49.194Z,16.37
2019-02-23T00:52:17.831Z,15.43
2019-02-23T00:54:46.286Z,17.00
2019-02-23T00:57:14.749Z,16.90
2019-02-23T00:59:43.381Z,21.13
2019-02-23T01:02:12.210Z,16.33
2019-02-23T01:04:40.885Z,18.13
2019-02-23T01:07:10.100Z,16.20
2019-02-23T01:09:38.556Z,15.27
2019-02-23T01:12:07.021Z,17.33
2019-02-23T01:14:35.522Z,17.57
2019-02-23T01:17:04.054Z,15.57
2019-02-23T01:19:32.595Z,18.80
2019-02-23T01:22:01.353Z,19.80
2019-02-23T01:24:29.888Z,19.13
2019-02-23T01:26:59.357Z,18.63
2019-02-23T01:29:27.988Z,18.50
2019-02-23T01:31:56.453Z,17.17
2019-02-23T01:34:24.913Z,18.80
2019-02-23T01:36:53.640Z,20.33
2019-02-23T01:39:22.095Z,18.73
2019-02-23T01:41:50.632Z,17.60
2019-02-23T01:44:19.469Z,17.83
2019-02-23T01:46:47.925Z,22.33
2019-02-23T01:49:16.381Z,19.90
2019-02-23T01:51:44.999Z,15.83
2019-02-23T01:54:13.528Z,17.80
2019-02-23T01:56:41.980Z,17.00
2019-02-23T01:59:10.541Z,18.60
2019-02-23T02:01:39.209Z,15.53
2019-02-23T02:04:07.664Z,16.83
2019-02-23T02:06:36.604Z,17.03
2019-02-23T02:09:06.386Z,16.53
2019-02-23T02:11:34.996Z,16.27
2019-02-23T02:14:03.622Z,16.50
2019-02-23T02:16:32.223Z,16.40
2019-02-23T02:19:00.684Z,15.10
2019-02-23T02:21:29.188Z,14.10
2019-02-23T02:23:57.665Z,15.57
2019-02-23T02:26:26.195Z,17.50
2019-02-23T02:28:55.039Z,19.43
2019-02-23T02:31:23.693Z,19.30
2019-02-23T02:34:09.908Z,19.87
2019-02-23T02:36:38.547Z,17.23
2019-02-23T02:39:11.901Z,19.37
2019-02-23T02:41:40.732Z,16.70
2019-02-23T02:44:09.375Z,19.60
2019-02-23T02:46:38.009Z,16.27
2019-02-23T02:49:06.671Z,14.60
2019-02-23T02:51:35.372Z,18.67
2019-02-23T02:54:04.087Z,18.10
2019-02-23T02:56:32.903Z,19.33
2019-02-23T02:59:01.469Z,15.93
2019-02-23T03:01:30.042Z,16.47
2019-02-23T03:03:58.779Z,18.83
2019-02-23T03:06:27.418Z,16.70
2019-02-23T03:08:56.194Z,16.37
2019-02-23T03:11:25.040Z,18.10
2019-02-23T03:13:53.744Z,17.30
2019-02-23T03:16:22.451Z,18.37
2019-02-23T03:18:51.202Z,17.43
2019-02-23T03:21:19.841Z,18.13
2019-02-23T03:23:48.480Z,20.50
2019-02-23T03:26:17.222Z,18.27
2019-02-23T03:28:45.998Z,19.23
2019-02-23T03:31:14.559Z,19.87
2019-02-23T03:33:43.359Z,19.80
2019-02-23T03:36:12.052Z,18.27
2019-02-23T03:38:40.697Z,18.17
2019-02-23T03:41:09.370Z,18.00
2019-02-23T03:43:38.003Z,20.17
2019-02-23T03:46:06.571Z,21.90
2019-02-23T03:48:35.176Z,17.37
2019-02-23T03:51:03.897Z,20.33
2019-02-23T03:53:39.566Z,19.50
2019-02-23T03:56:08.204Z,17.37
2019-02-23T03:58:36.919Z,19.40
2019-02-23T04:01:05.586Z,18.40
2019-02-23T04:03:34.223Z,19.73
2019-02-23T04:06:02.863Z,18.30
2019-02-23T04:08:31.541Z,19.17
2019-02-23T04:11:00.113Z,19.43
2019-02-23T04:13:28.887Z,19.20
2019-02-23T04:15:57.632Z,18.17
2019-02-23T04:18:26.210Z,21.70
2019-02-23T04:21:01.815Z,18.77
2019-02-23T04:23:25.095Z,21.03
2019-02-23T04:25:53.723Z,23.53
2019-02-23T04:28:22.350Z,19.83
2019-02-23T04:30:50.951Z,20.27
2019-02-23T04:33:19.513Z,23.00
2019-02-23T04:35:48.154Z,20.97
2019-02-23T04:38:17.218Z,20.17
2019-02-23T04:40:45.831Z,22.87
2019-02-23T04:43:14.461Z,18.67
2019-02-23T04:45:43.096Z,21.10
2019-02-23T04:48:11.815Z,19.80
2019-02-23T04:50:40.398Z,21.53
2019-02-23T04:53:09.110Z,21.20
2019-02-23T04:55:37.771Z,20.10
2019-02-23T04:58:06.328Z,20.27
2019-02-23T05:00:35.468Z,21.90
2019-02-23T05:03:04.112Z,22.70
2019-02-23T05:05:32.819Z,22.90
2019-02-23T05:08:01.435Z,22.80
2019-02-23T05:10:30.003Z,20.87
2019-02-23T05:12:58.574Z,21.93
2019-02-23T05:15:27.197Z,23.43
2019-02-23T05:17:55.759Z,22.37
2019-02-23T05:20:24.409Z,25.20
2019-02-23T05:22:53.011Z,21.30
2019-02-23T05:25:21.578Z,22.90
2019-02-23T05:27:50.218Z,24.77
2019-02-23T05:30:18.904Z,25.50
2019-02-23T05:32:47.620Z,22.93
2019-02-23T05:35:16.272Z,25.30
2019-02-23T05:37:44.975Z,23.20
2019-02-23T05:40:13.756Z,21.57
2019-02-23T05:42:42.390Z,28.13
2019-02-23T05:45:11.734Z,24.03
2019-02-23T05:47:40.445Z,21.10
2019-02-23T05:50:09.800Z,21.70
2019-02-23T05:52:38.544Z,24.20
2019-02-23T05:55:07.255Z,22.93
2019-02-23T05:57:35.907Z,23.23
2019-02-23T06:00:07.216Z,26.57
2019-02-23T06:02:35.855Z,22.43
2019-02-23T06:05:05.671Z,24.10
2019-02-23T06:07:34.505Z,23.73
2019-02-23T06:10:04.411Z,22.17
2019-02-23T06:12:33.077Z,20.73
2019-02-23T06:15:01.816Z,24.20
2019-02-23T06:17:30.459Z,19.97
2019-02-23T06:19:59.018Z,22.80
2019-02-23T06:22:27.630Z,22.83
2019-02-23T06:24:56.196Z,23.33
2019-02-23T06:27:24.934Z,21.80
2019-02-23T06:29:53.554Z,24.60
2019-02-23T06:32:22.276Z,23.97
2019-02-23T06:34:50.843Z,23.63
2019-02-23T06:37:19.526Z,21.73
2019-02-23T06:39:48.090Z,22.10
2019-02-23T06:42:16.654Z,23.27
2019-02-23T06:44:45.412Z,23.70
2019-02-23T06:47:14.073Z,23.10
2019-02-23T06:49:42.626Z,24.12
2019-02-23T06:52:11.366Z,21.20
2019-02-23T06:54:39.940Z,22.87
2019-02-23T06:57:08.514Z,23.57
2019-02-23T06:59:37.115Z,23.03
2019-02-23T07:02:05.756Z,22.53
2019-02-23T07:04:34.394Z,20.27
2019-02-23T07:07:03.328Z,21.47
2019-02-23T07:09:31.958Z,23.00
2019-02-23T07:12:00.663Z,19.97
2019-02-23T07:14:29.510Z,20.43
2019-02-23T07:16:58.222Z,20.33
2019-02-23T07:19:26.947Z,21.67
2019-02-23T07:21:55.716Z,19.83
2019-02-23T07:24:24.426Z,19.67
2019-02-23T07:26:53.070Z,19.90
2019-02-23T07:29:21.768Z,20.37
2019-02-23T07:31:50.335Z,15.93
2019-02-23T07:34:18.934Z,19.50
2019-02-23T07:36:47.610Z,18.93
2019-02-23T07:39:16.250Z,19.03
2019-02-23T07:41:44.942Z,19.40
2019-02-23T07:44:13.620Z,18.00
2019-02-23T07:46:42.256Z,19.77
2019-02-23T07:49:12.620Z,19.50
2019-02-23T07:51:41.267Z,19.13
2019-02-23T07:54:09.914Z,22.23
2019-02-23T07:56:39.441Z,14.33
2019-02-23T07:59:08.284Z,16.47
2019-02-23T08:01:36.928Z,17.83
2019-02-23T08:04:05.640Z,18.53
2019-02-23T08:06:34.293Z,20.27
2019-02-23T08:09:02.923Z,17.00
2019-02-23T08:11:31.495Z,17.53
2019-02-23T08:14:00.334Z,17.97
2019-02-23T08:16:29.011Z,16.23
2019-02-23T08:18:59.184Z,15.47
2019-02-23T08:21:28.197Z,17.13
2019-02-23T08:23:57.006Z,16.03
2019-02-23T08:26:25.723Z,16.17
2019-02-23T08:28:54.587Z,16.80
2019-02-23T08:31:23.232Z,15.43
2019-02-23T08:33:51.879Z,14.43
2019-02-23T08:36:20.598Z,14.00
2019-02-23T08:38:49.167Z,14.17
2019-02-23T08:41:17.818Z,14.07
2019-02-23T08:43:46.587Z,15.00
2019-02-23T08:46:15.222Z,16.63
2019-02-23T08:48:43.938Z,14.43
2019-02-23T08:51:12.607Z,14.20
2019-02-23T08:53:41.246Z,14.23
2019-02-23T08:56:10.016Z,14.33
2019-02-23T08:58:39.266Z,14.33
2019-02-23T09:01:07.977Z,14.73
2019-02-23T09:03:36.816Z,13.23
2019-02-23T09:06:05.402Z,14.20
2019-02-23T09:08:34.173Z,12.60
2019-02-23T09:11:02.887Z,13.60
2019-02-23T09:13:31.550Z,15.40
2019-02-23T09:16:00.354Z,12.20
2019-02-23T09:18:29.198Z,13.23
2019-02-23T09:20:57.804Z,13.17
2019-02-23T09:23:26.467Z,12.67
2019-02-23T09:25:55.010Z,14.57
2019-02-23T09:28:23.617Z,12.77
2019-02-23T09:30:52.331Z,13.60
2019-02-23T09:33:21.030Z,13.53
2019-02-23T09:35:49.902Z,13.80
2019-02-23T09:38:18.544Z,13.80
2019-02-23T09:40:47.187Z,12.53
2019-02-23T09:43:17.762Z,10.77
2019-02-23T09:45:46.313Z,12.63
2019-02-23T09:48:15.105Z,12.57
2019-02-23T09:50:43.868Z,12.50
2019-02-23T09:53:12.692Z,12.03
2019-02-23T09:55:41.267Z,11.80
2019-02-23T09:58:09.875Z,12.43
2019-02-23T10:00:38.523Z,9.70
2019-02-23T10:03:07.101Z,10.90
2019-02-23T10:05:38.112Z,10.33
2019-02-23T10:08:07.214Z,12.00
2019-02-23T10:10:35.843Z,11.97
2019-02-23T10:13:04.458Z,9.43
2019-02-23T10:15:33.095Z,9.90
2019-02-23T10:18:01.667Z,9.20
2019-02-23T10:20:30.267Z,9.30
2019-02-23T10:22:58.835Z,9.10
2019-02-23T10:25:27.472Z,8.37
2019-02-23T10:27:56.160Z,9.23
2019-02-23T10:30:24.807Z,10.77
2019-02-23T10:32:53.360Z,8.60
2019-02-23T10:35:22.031Z,9.70
2019-02-23T10:37:50.622Z,10.33
2019-02-23T10:40:19.251Z,10.30
2019-02-23T10:42:48.023Z,7.27
2019-02-23T10:45:16.729Z,9.10
2019-02-23T10:47:45.363Z,7.37
2019-02-23T10:50:15.814Z,8.47
2019-02-23T10:52:44.447Z,8.87
2019-02-23T10:55:14.451Z,7.77
2019-02-23T10:57:43.206Z,7.93
2019-02-23T11:00:16.060Z,8.40
2019-02-23T11:02:44.700Z,7.80
2019-02-23T11:05:13.903Z,8.10
2019-02-23T11:07:42.538Z,9.67
2019-02-23T11:10:11.440Z,8.50
2019-02-23T11:12:40.043Z,7.73
2019-02-23T11:15:11.791Z,8.30
2019-02-23T11:17:40.492Z,7.50
2019-02-23T11:20:10.950Z,7.87
2019-02-23T11:22:39.597Z,7.60
2019-02-23T11:25:10.505Z,8.20
2019-02-23T11:27:39.537Z,8.83
2019-02-23T11:30:11.150Z,7.33
2019-02-23T11:32:39.733Z,7.13
2019-02-23T11:35:10.636Z,8.73
2019-02-23T11:37:39.275Z,8.90
2019-02-23T11:40:11.042Z,6.63
2019-02-23T11:42:39.817Z,8.30
2019-02-23T11:45:09.918Z,8.97
2019-02-23T11:47:38.618Z,8.07
2019-02-23T11:50:09.867Z,6.77
2019-02-23T11:52:39.512Z,7.27
2019-02-23T11:55:08.484Z,6.83
2019-02-23T11:57:37.427Z,6.70
2019-02-23T12:00:08.472Z,6.53
2019-02-23T12:02:37.175Z,8.83
2019-02-23T12:05:06.222Z,6.23
2019-02-23T12:07:34.883Z,7.93
2019-02-23T12:10:03.988Z,5.93
2019-02-23T12:12:33.012Z,6.83
2019-02-23T12:15:01.651Z,6.63
2019-02-23T12:17:30.307Z,8.77
2019-02-23T12:19:58.895Z,7.57
2019-02-23T12:22:27.535Z,7.63
2019-02-23T12:24:56.175Z,7.40
2019-02-23T12:27:24.935Z,6.60
2019-02-23T12:29:53.667Z,7.80
2019-02-23T12:32:22.247Z,6.10
2019-02-23T12:34:51.362Z,6.23
2019-02-23T12:37:20.082Z,6.00
2019-02-23T12:39:48.795Z,6.73
2019-02-23T12:42:17.471Z,7.13
2019-02-23T12:44:46.109Z,9.77
2019-02-23T12:47:14.675Z,5.70
2019-02-23T12:49:43.416Z,6.57
2019-02-23T12:52:12.120Z,6.17
2019-02-23T12:54:40.756Z,5.03
2019-02-23T12:57:09.457Z,6.20
2019-02-23T12:59:38.156Z,5.93
2019-02-23T13:02:06.862Z,6.17
2019-02-23T13:04:35.460Z,5.73
2019-02-23T13:07:04.167Z,6.13
2019-02-23T13:09:33.195Z,5.87
2019-02-23T13:12:14.019Z,5.23
2019-02-23T13:14:51.644Z,5.10
2019-02-23T13:17:45.167Z,5.10
2019-02-23T13:20:34.841Z,6.33
2019-02-23T13:23:34.066Z,4.50
2019-02-23T13:26:05.699Z,4.40
2019-02-23T13:28:56.843Z,4.87
2019-02-23T13:32:01.779Z,3.93
2019-02-23T13:34:48.417Z,4.07
2019-02-23T13:37:22.931Z,3.97
2019-02-23T13:39:57.259Z,5.90
2019-02-23T13:42:31.731Z,3.63
2019-02-23T13:45:20.226Z,3.80
2019-02-23T13:48:00.833Z,3.80
2019-02-23T13:50:52.215Z,4.97
2019-02-23T13:53:43.326Z,4.30
2019-02-23T13:56:15.018Z,5.07
2019-02-23T13:58:49.511Z,4.00
2019-02-23T14:01:37.446Z,4.10
2019-02-23T14:04:15.116Z,4.80
2019-02-23T14:06:58.960Z,3.70
2019-02-23T14:09:48.007Z,4.37
2019-02-23T14:12:31.351Z,3.67
2019-02-23T14:15:20.906Z,4.03
2019-02-23T14:17:55.232Z,3.53
2019-02-23T14:20:32.711Z,3.23
2019-02-23T14:23:30.085Z,3.50
2019-02-23T14:26:07.738Z,3.67
2019-02-23T14:28:48.560Z,3.10
2019-02-23T14:31:26.086Z,4.17
2019-02-23T14:34:17.061Z,3.03
2019-02-23T14:37:00.329Z,3.40
2019-02-23T14:39:56.708Z,4.50
2019-02-23T14:42:53.282Z,5.27
2019-02-23T14:45:25.125Z,3.73
2019-02-23T14:48:16.565Z,5.10
2019-02-23T14:51:05.240Z,3.17
2019-02-23T14:53:42.662Z,3.50
2019-02-23T14:56:23.333Z,3.67
2019-02-23T14:59:12.905Z,5.23
2019-02-23T15:01:47.549Z,3.80
2019-02-23T15:04:35.554Z,4.83
2019-02-23T15:07:09.996Z,3.90
2019-02-23T15:09:53.589Z,3.33
2019-02-23T15:12:52.874Z,2.83
2019-02-23T15:15:56.083Z,3.10
2019-02-23T15:18:54.888Z,3.30
2019-02-23T15:21:29.111Z,3.37
2019-02-23T15:24:03.802Z,3.70
2019-02-23T15:26:54.958Z,3.33
2019-02-23T15:29:35.579Z,2.83
2019-02-23T15:32:31.434Z,4.43
2019-02-23T15:35:09.037Z,4.83
2019-02-23T15:37:43.349Z,3.33
2019-02-23T15:40:48.398Z,3.90
2019-02-23T15:43:22.599Z,4.07
2019-02-23T15:46:03.383Z,3.37
2019-02-23T15:48:37.609Z,3.70
2019-02-23T15:51:06.450Z,4.00
2019-02-23T15:53:35.509Z,4.17
2019-02-23T15:56:04.095Z,2.63
2019-02-23T15:58:32.732Z,4.10
2019-02-23T16:01:01.302Z,3.60
2019-02-23T16:03:29.997Z,3.90
2019-02-23T16:05:58.552Z,3.50
2019-02-23T16:08:27.213Z,6.50
2019-02-23T16:10:56.144Z,5.03
2019-02-23T16:13:24.741Z,4.40
2019-02-23T16:15:53.677Z,3.40
2019-02-23T16:18:22.238Z,5.73
2019-02-23T16:20:50.801Z,5.43
2019-02-23T16:23:19.407Z,5.23
2019-02-23T16:25:48.040Z,4.87
2019-02-23T16:28:16.658Z,7.10
2019-02-23T16:30:45.366Z,4.50
2019-02-23T16:33:13.991Z,4.87
2019-02-23T16:35:42.538Z,3.80
2019-02-23T16:38:11.586Z,5.83
2019-02-23T16:40:40.156Z,5.67
2019-02-23T16:43:08.702Z,5.43
2019-02-23T16:45:37.727Z,5.97
2019-02-23T16:48:06.415Z,7.80
2019-02-23T16:50:35.042Z,5.90
2019-02-23T16:53:03.699Z,3.97
2019-02-23T16:55:32.271Z,5.10
2019-02-23T16:58:00.813Z,3.90
2019-02-23T17:00:29.529Z,4.47
2019-02-23T17:02:58.195Z,5.10
2019-02-23T17:05:26.750Z,5.43
2019-02-23T17:07:55.352Z,5.73
2019-02-23T17:10:23.986Z,4.13
2019-02-23T17:12:52.614Z,4.07
2019-02-23T17:15:21.438Z,5.73
2019-02-23T17:17:50.002Z,4.40
2019-02-23T17:20:18.564Z,4.60
2019-02-23T17:22:47.168Z,4.17
2019-02-23T17:25:15.791Z,4.87
2019-02-23T17:27:44.357Z,4.27
2019-02-23T17:30:13.015Z,3.87
2019-02-23T17:32:41.570Z,4.67
2019-02-23T17:35:10.129Z,3.20
2019-02-23T17:37:38.721Z,3.07
2019-02-23T17:40:08.217Z,4.70
2019-02-23T17:42:36.790Z,3.77
2019-02-23T17:45:08.927Z,3.27
2019-02-23T17:47:37.753Z,3.10
2019-02-23T17:50:08.150Z,4.00
2019-02-23T17:52:36.836Z,4.10
2019-02-23T17:55:07.638Z,3.90
2019-02-23T17:57:36.278Z,8.47
2019-02-23T18:00:07.762Z,9.57
2019-02-23T18:02:36.454Z,11.77
2019-02-23T18:05:06.054Z,11.60
2019-02-23T18:07:34.983Z,7.20
2019-02-23T18:10:04.378Z,6.33
2019-02-23T18:12:32.930Z,4.67
2019-02-23T18:15:01.535Z,5.57
2019-02-23T18:17:30.089Z,7.03
2019-02-23T18:19:58.645Z,5.83
2019-02-23T18:22:27.233Z,5.17
2019-02-23T18:24:55.798Z,5.30
2019-02-23T18:27:24.423Z,4.03
2019-02-23T18:29:53.269Z,5.07
2019-02-23T18:32:21.890Z,5.73
2019-02-23T18:34:50.441Z,7.83
2019-02-23T18:37:19.106Z,4.77
2019-02-23T18:39:47.661Z,5.90
2019-02-23T18:42:16.217Z,5.73
2019-02-23T18:44:45.076Z,5.03
2019-02-23T18:47:13.635Z,7.03
2019-02-23T18:49:42.254Z,7.53
2019-02-23T18:52:11.870Z,7.03
2019-02-23T18:54:40.669Z,5.30
2019-02-23T18:57:09.298Z,9.00
2019-02-23T18:59:38.063Z,6.97
2019-02-23T19:02:06.694Z,9.37
2019-02-23T19:04:35.245Z,6.40
2019-02-23T19:07:03.973Z,5.10
2019-02-23T19:09:32.604Z,7.00
2019-02-23T19:12:01.154Z,7.40
2019-02-23T19:14:29.809Z,6.40
2019-02-23T19:16:58.525Z,7.90
2019-02-23T19:19:27.158Z,6.57
2019-02-23T19:21:55.821Z,6.20
2019-02-23T19:24:24.377Z,6.77
2019-02-23T19:26:53.017Z,5.97
2019-02-23T19:29:21.619Z,6.93
2019-02-23T19:31:50.174Z,5.40
2019-02-23T19:34:18.725Z,7.03
2019-02-23T19:36:48.403Z,8.70
2019-02-23T19:39:17.002Z,6.70
2019-02-23T19:41:45.559Z,8.20
2019-02-23T19:44:14.661Z,4.80
2019-02-23T19:46:46.390Z,5.80
2019-02-23T19:49:14.937Z,4.90
2019-02-23T19:51:43.547Z,5.10
2019-02-23T19:54:13.765Z,4.63
2019-02-23T19:56:46.768Z,4.00
2019-02-23T19:59:12.821Z,3.80
2019-02-23T20:01:41.365Z,4.10
2019-02-23T20:04:09.926Z,3.93
2019-02-23T20:06:38.509Z,3.47
2019-02-23T20:09:07.506Z,3.30
2019-02-23T20:11:36.135Z,2.97
2019-02-23T20:14:04.869Z,3.90
2019-02-23T20:16:33.494Z,4.87
2019-02-23T20:19:02.049Z,3.77
2019-02-23T20:21:30.984Z,3.10
2019-02-23T20:23:59.539Z,7.27
2019-02-23T20:26:28.167Z,6.53
2019-02-23T20:28:56.753Z,4.23
2019-02-23T20:31:25.306Z,2.87
2019-02-23T20:33:53.933Z,3.40
2019-02-23T20:36:22.637Z,3.83
2019-02-23T20:38:51.193Z,4.00
2019-02-23T20:41:19.741Z,3.30
2019-02-23T20:43:48.459Z,4.50
2019-02-23T20:46:17.014Z,4.73
2019-02-23T20:48:45.573Z,3.50
2019-02-23T20:51:14.165Z,3.20
2019-02-23T20:53:42.717Z,3.53
2019-02-23T20:56:11.343Z,7.77
2019-02-23T20:58:40.034Z,2.40
2019-02-23T21:01:08.658Z,3.97
2019-02-23T21:03:37.226Z,2.13
2019-02-23T21:06:05.936Z,2.67
2019-02-23T21:08:34.572Z,2.80
2019-02-23T21:11:03.189Z,2.50
2019-02-23T21:13:31.934Z,2.40
2019-02-23T21:16:00.562Z,3.30
2019-02-23T21:18:29.114Z,3.60
2019-02-23T21:20:57.777Z,3.33
2019-02-23T21:23:26.334Z,4.10
2019-02-23T21:25:54.882Z,7.03
2019-02-23T21:28:23.603Z,7.07
2019-02-23T21:30:52.157Z,3.03
2019-02-23T21:33:20.783Z,4.23
2019-02-23T21:35:49.802Z,4.60
2019-02-23T21:38:18.425Z,3.40
2019-02-23T21:40:47.062Z,5.27
2019-02-23T21:43:16.106Z,6.73
2019-02-23T21:45:44.657Z,6.70
2019-02-23T21:48:13.217Z,5.03
2019-02-23T21:50:41.821Z,5.93
2019-02-23T21:53:10.370Z,6.43
2019-02-23T21:55:38.998Z,3.43
2019-02-23T21:58:07.894Z,4.03
2019-02-23T22:00:36.590Z,2.93
2019-02-23T22:03:07.030Z,2.93
2019-02-23T22:05:35.847Z,2.87
2019-02-23T22:08:04.392Z,6.03
2019-02-23T22:10:32.957Z,5.20
2019-02-23T22:13:01.845Z,5.10
2019-02-23T22:15:30.465Z,5.23
2019-02-23T22:17:59.030Z,5.60
2019-02-23T22:20:27.684Z,7.10
2019-02-23T22:22:56.241Z,7.80
2019-02-23T22:25:24.790Z,7.60
2019-02-23T22:27:53.533Z,4.93
2019-02-23T22:30:22.138Z,5.23
2019-02-23T22:32:50.701Z,6.17
2019-02-23T22:35:19.625Z,4.80
2019-02-23T22:37:48.237Z,5.50
2019-02-23T22:40:16.798Z,4.87
2019-02-23T22:42:45.382Z,5.13
2019-02-23T22:45:14.082Z,4.53
2019-02-23T22:47:42.636Z,3.60
2019-02-23T22:50:11.468Z,3.57
2019-02-23T22:52:40.031Z,3.93
2019-02-23T22:55:08.822Z,3.57
2019-02-23T22:57:40.689Z,4.83
2019-02-23T23:00:11.159Z,2.97
2019-02-23T23:02:39.810Z,4.33
2019-02-23T23:05:08.710Z,3.43
2019-02-23T23:07:37.260Z,4.10
2019-02-23T23:10:08.160Z,5.23
2019-02-23T23:12:36.814Z,3.07
2019-02-23T23:15:07.106Z,3.50
2019-02-23T23:17:35.662Z,3.80
2019-02-23T23:20:05.788Z,3.57
2019-02-23T23:22:34.348Z,3.23
2019-02-23T23:25:03.076Z,3.53
2019-02-23T23:27:31.721Z,3.57
2019-02-23T23:30:00.295Z,5.23
2019-02-23T23:32:28.833Z,2.83
2019-02-23T23:34:57.486Z,5.10
2019-02-23T23:37:26.111Z,3.50
2019-02-23T23:39:54.670Z,4.50
2019-02-23T23:42:23.407Z,6.60
2019-02-23T23:44:51.965Z,4.70
2019-02-23T23:47:20.527Z,4.07
2019-02-23T23:49:49.126Z,3.83
2019-02-23T23:52:17.674Z,4.63
2019-02-23T23:54:46.262Z,3.67
2019-02-23T23:57:14.989Z,5.13
2019-02-23T23:59:43.552Z,4.90
